Time;durP1;ratioP1;P1;durP2;ratioP2;P2;SDS_P1;SDS_P2;PMS_P1;PMS_P2;Temp;Humidity;BMP_temperature;BMP_pressure;BME280_temperature;BME280_humidity;BME280_pressure;Samples;Min_cycle;Max_cycle;Signal;HPM_P1;HPM_P2
2022/09/08 00:00:09;;;;;;;2.73;2.27;;;18.50;99.90;;;;;;4993705;28;20422;-76
2022/09/08 00:02:38;;;;;;;5.27;2.67;;;18.60;99.90;;;;;;4994031;28;20916;-76
2022/09/08 00:05:06;;;;;;;5.53;2.47;;;18.60;99.90;;;;;;4992564;28;20423;-74
2022/09/08 00:07:32;;;;;;;4.77;1.87;;;18.60;99.90;;;;;;4992846;28;20386;-75
2022/09/08 00:09:58;;;;;;;4.43;2.40;;;18.60;99.90;;;;;;4993852;28;20423;-74
2022/09/08 00:12:25;;;;;;;3.00;2.10;;;18.60;99.90;;;;;;4992574;28;20557;-74
2022/09/08 00:14:51;;;;;;;4.53;2.33;;;18.50;99.90;;;;;;4994013;28;20419;-75
2022/09/08 00:17:18;;;;;;;3.83;2.20;;;18.40;99.90;;;;;;4993801;28;20426;-75
2022/09/08 00:19:44;;;;;;;2.87;2.20;;;18.40;99.90;;;;;;4993594;28;20514;-76
2022/09/08 00:22:10;;;;;;;5.33;2.20;;;18.40;99.90;;;;;;4993736;28;20508;-75
2022/09/08 00:24:35;;;;;;;4.20;2.47;;;18.30;99.90;;;;;;4992636;28;20184;-74
2022/09/08 00:27:01;;;;;;;3.13;1.97;;;18.40;99.90;;;;;;4992521;28;20188;-76
2022/09/08 00:29:26;;;;;;;3.07;2.03;;;18.30;99.90;;;;;;4993570;28;20246;-74
2022/09/08 00:31:52;;;;;;;4.67;1.93;;;18.30;99.90;;;;;;4993282;28;20294;-75
2022/09/08 00:34:17;;;;;;;1.80;1.70;;;18.30;99.90;;;;;;4993884;28;20575;-75
2022/09/08 00:36:43;;;;;;;3.10;1.87;;;18.20;99.90;;;;;;4993719;28;20267;-72
2022/09/08 00:39:09;;;;;;;3.10;1.97;;;18.30;99.90;;;;;;4993545;28;20185;-75
2022/09/08 00:41:35;;;;;;;3.50;1.80;;;18.30;99.90;;;;;;4991862;28;20234;-76
2022/09/08 00:44:38;;;;;;;3.30;2.00;;;18.30;99.90;;;;;;4993588;28;20271;-75
2022/09/08 00:47:06;;;;;;;4.37;1.87;;;18.30;99.90;;;;;;4993587;28;20415;-76
2022/09/08 00:49:32;;;;;;;3.03;2.03;;;18.30;99.90;;;;;;4993398;28;20518;-75
2022/09/08 00:51:59;;;;;;;3.13;1.87;;;18.40;99.90;;;;;;4992853;28;21012;-76
2022/09/08 00:54:25;;;;;;;4.37;2.33;;;18.40;99.90;;;;;;4993354;28;20866;-74
2022/09/08 00:56:53;;;;;;;4.37;2.00;;;18.50;99.90;;;;;;4996929;28;20411;-74
2022/09/08 00:59:20;;;;;;;5.00;2.33;;;18.60;99.90;;;;;;4997589;28;20513;-75
2022/09/08 01:01:46;;;;;;;3.33;1.93;;;18.70;99.90;;;;;;4995560;28;20530;-75
2022/09/08 01:04:12;;;;;;;5.07;1.70;;;18.80;99.90;;;;;;4997239;28;20428;-75
2022/09/08 01:12:45;;;;;;;2.77;2.07;;;19.00;99.90;;;;;;4997132;28;20823;-74
2022/09/08 01:15:16;;;;;;;4.40;2.30;;;19.10;99.90;;;;;;4997054;28;20411;-75
2022/09/08 01:17:42;;;;;;;3.60;2.30;;;19.00;99.90;;;;;;4995680;28;20419;-75
2022/09/08 01:20:09;;;;;;;2.50;2.00;;;18.90;99.90;;;;;;4995271;28;20489;-73
2022/09/08 01:23:23;;;;;;;3.87;2.07;;;19.00;99.90;;;;;;4995880;28;20410;-74
2022/09/08 01:26:12;;;;;;;4.13;2.07;;;19.00;99.90;;;;;;4997049;28;20729;-75
2022/09/08 01:28:47;;;;;;;2.77;1.57;;;19.00;99.90;;;;;;4996900;28;20524;-74
2022/09/08 01:31:13;;;;;;;5.37;2.07;;;18.90;99.90;;;;;;4996437;28;20458;-74
2022/09/08 01:33:40;;;;;;;5.33;2.00;;;18.90;99.90;;;;;;4996761;28;20422;-75
2022/09/08 01:36:12;;;;;;;2.53;1.93;;;18.90;99.90;;;;;;4995655;28;20475;-74
2022/09/08 01:38:38;;;;;;;3.60;2.13;;;18.80;99.90;;;;;;4996660;28;20408;-74
2022/09/08 01:41:04;;;;;;;5.40;2.73;;;18.70;99.90;;;;;;4996133;28;20448;-74
2022/09/08 01:43:30;;;;;;;4.10;1.93;;;18.60;99.90;;;;;;4996592;28;20263;-73
2022/09/08 01:45:56;;;;;;;9.50;2.40;;;18.50;99.90;;;;;;4995288;28;20859;-74
2022/09/08 01:48:22;;;;;;;4.97;2.67;;;18.50;99.90;;;;;;4995141;28;20192;-75
2022/09/08 01:50:49;;;;;;;6.10;2.07;;;18.50;99.90;;;;;;4994771;28;20471;-74
2022/09/08 01:53:15;;;;;;;3.83;2.87;;;18.50;99.90;;;;;;4978961;28;20444;-75
2022/09/08 01:55:41;;;;;;;3.27;2.20;;;18.40;99.90;;;;;;4995001;28;20462;-73
2022/09/08 01:58:06;;;;;;;5.10;2.00;;;18.30;99.90;;;;;;4996149;28;20394;-72
2022/09/08 02:00:32;;;;;;;3.40;2.57;;;18.30;99.90;;;;;;4995789;28;20212;-73
2022/09/08 02:02:58;;;;;;;3.80;2.13;;;18.40;99.90;;;;;;4996137;28;20513;-73
2022/09/08 02:05:24;;;;;;;4.27;2.70;;;18.40;99.90;;;;;;4996129;28;20219;-72
2022/09/08 02:07:49;;;;;;;3.60;2.40;;;18.20;99.90;;;;;;4995793;28;20434;-73
2022/09/08 02:10:15;;;;;;;5.43;3.10;;;18.00;99.90;;;;;;4995559;28;20394;-72
2022/09/08 02:12:41;;;;;;;5.10;2.70;;;17.90;99.90;;;;;;4994997;28;20556;-72
2022/09/08 02:15:07;;;;;;;4.13;2.80;;;17.80;99.90;;;;;;4994850;28;20184;-72
2022/09/08 02:17:33;;;;;;;9.47;4.10;;;17.70;99.90;;;;;;4994935;28;20196;-72
2022/09/08 02:19:58;;;;;;;5.10;3.27;;;17.70;99.90;;;;;;4995729;28;20789;-73
2022/09/08 02:22:25;;;;;;;6.20;3.73;;;17.70;99.90;;;;;;4995926;28;20204;-72
2022/09/08 02:24:52;;;;;;;5.63;3.23;;;17.60;99.90;;;;;;4996078;28;20184;-73
2022/09/08 02:27:17;;;;;;;7.80;3.50;;;17.50;99.90;;;;;;4994916;28;20758;-73
2022/09/08 02:29:43;;;;;;;5.13;3.40;;;17.50;99.90;;;;;;4978111;28;20526;-74
2022/09/08 02:32:09;;;;;;;7.10;4.73;;;17.40;99.90;;;;;;4995657;28;20219;-73
2022/09/08 02:34:34;;;;;;;4.73;2.83;;;17.40;99.90;;;;;;4995562;28;20700;-73
2022/09/08 02:37:00;;;;;;;3.53;2.80;;;17.40;99.90;;;;;;4995886;28;20420;-72
2022/09/08 02:39:25;;;;;;;4.83;3.43;;;17.30;99.90;;;;;;4995770;28;20192;-73
2022/09/08 02:41:51;;;;;;;4.10;2.90;;;17.20;99.90;;;;;;4995297;28;20565;-73
2022/09/08 02:44:17;;;;;;;6.77;3.57;;;17.20;99.90;;;;;;4978129;28;20188;-73
2022/09/08 02:46:42;;;;;;;4.63;2.97;;;17.20;99.90;;;;;;4995454;28;20193;-73
2022/09/08 02:49:12;;;;;;;6.17;4.17;;;17.10;99.90;;;;;;4994296;28;20192;-73
2022/09/08 02:51:37;;;;;;;4.03;3.20;;;17.10;99.90;;;;;;4994986;28;20298;-73
2022/09/08 02:54:03;;;;;;;3.57;2.93;;;17.10;99.90;;;;;;4994108;28;20583;-73
2022/09/08 02:56:29;;;;;;;3.93;2.90;;;17.10;99.90;;;;;;4995399;28;20195;-73
2022/09/08 02:58:55;;;;;;;4.47;3.13;;;17.10;99.90;;;;;;4995291;28;20398;-72
2022/09/08 03:01:22;;;;;;;2.90;2.70;;;17.10;99.90;;;;;;4993844;28;20790;-73
2022/09/08 03:03:47;;;;;;;4.63;3.17;;;17.10;99.90;;;;;;4995502;28;20187;-73
2022/09/08 03:06:14;;;;;;;3.83;2.90;;;17.20;99.90;;;;;;4994057;28;20802;-73
2022/09/08 03:08:40;;;;;;;4.80;2.90;;;17.20;99.90;;;;;;4995062;28;20180;-74
2022/09/08 03:11:06;;;;;;;4.53;3.00;;;17.20;99.90;;;;;;4994816;28;20554;-74
2022/09/08 03:13:32;;;;;;;6.30;3.20;;;17.20;99.90;;;;;;4993827;28;20450;-73
2022/09/08 03:15:58;;;;;;;2.97;2.70;;;17.20;99.90;;;;;;4995191;28;20415;-74
2022/09/08 03:18:24;;;;;;;3.47;2.70;;;17.20;99.90;;;;;;4994400;28;20652;-73
2022/09/08 03:20:59;;;;;;;4.10;3.00;;;17.10;99.90;;;;;;4994503;28;20196;-73
2022/09/08 03:23:26;;;;;;;4.30;3.43;;;17.20;99.90;;;;;;4995039;28;20415;-73
2022/09/08 03:25:52;;;;;;;6.43;2.93;;;17.20;99.90;;;;;;4993659;28;20890;-73
2022/09/08 03:28:21;;;;;;;4.83;3.00;;;17.20;99.90;;;;;;4994879;28;20473;-73
2022/09/08 03:30:47;;;;;;;3.73;2.80;;;17.20;99.90;;;;;;4994241;28;20460;-74
2022/09/08 03:33:12;;;;;;;5.20;2.80;;;17.00;99.90;;;;;;4993504;28;20898;-74
2022/09/08 03:35:38;;;;;;;6.07;3.63;;;17.00;99.90;;;;;;4994793;28;20423;-76
2022/09/08 03:38:05;;;;;;;4.53;2.90;;;17.00;99.90;;;;;;4994510;28;20276;-74
2022/09/08 03:40:31;;;;;;;4.40;3.27;;;17.10;99.90;;;;;;4994231;28;20200;-74
2022/09/08 03:42:56;;;;;;;3.20;2.90;;;17.10;99.90;;;;;;4994446;28;20557;-74
2022/09/08 03:45:22;;;;;;;4.87;3.30;;;17.00;99.90;;;;;;4993522;28;20187;-74
2022/09/08 03:47:47;;;;;;;5.13;3.77;;;17.10;99.90;;;;;;4993216;28;20192;-74
2022/09/08 03:50:15;;;;;;;3.57;3.27;;;17.10;99.90;;;;;;4993941;28;20177;-74
2022/09/08 03:52:41;;;;;;;3.93;3.10;;;17.00;99.90;;;;;;4994377;28;20259;-74
2022/09/08 03:55:08;;;;;;;4.20;3.17;;;17.00;99.90;;;;;;4994068;28;20559;-75
2022/09/08 03:57:34;;;;;;;4.97;3.27;;;17.00;99.90;;;;;;4994489;28;20641;-74
2022/09/08 04:00:00;;;;;;;5.97;3.47;;;17.00;99.90;;;;;;4993943;28;20438;-74
2022/09/08 04:02:28;;;;;;;5.03;2.97;;;17.00;99.90;;;;;;4994183;28;20440;-74
2022/09/08 04:04:55;;;;;;;4.83;3.50;;;17.00;99.90;;;;;;4994113;28;20982;-74
2022/09/08 04:07:23;;;;;;;4.87;3.67;;;17.00;99.90;;;;;;4994107;28;20477;-74
2022/09/08 04:09:49;;;;;;;5.43;4.07;;;17.00;99.90;;;;;;4993770;28;20401;-74
2022/09/08 04:12:16;;;;;;;9.60;4.30;;;17.00;99.90;;;;;;4993999;28;20956;-74
2022/09/08 04:14:42;;;;;;;4.77;3.77;;;17.00;99.90;;;;;;4994145;28;20415;-74
2022/09/08 04:17:08;;;;;;;5.47;4.30;;;17.00;99.90;;;;;;4992621;28;20473;-75
2022/09/08 04:19:34;;;;;;;8.20;4.07;;;17.00;99.90;;;;;;4993953;28;20422;-75
2022/09/08 04:22:01;;;;;;;7.43;4.10;;;17.00;99.90;;;;;;4993510;28;20434;-75
2022/09/08 04:24:27;;;;;;;5.00;3.47;;;17.00;99.90;;;;;;4993930;28;20781;-74
2022/09/08 04:26:53;;;;;;;4.00;3.57;;;17.10;99.90;;;;;;4992869;28;20750;-74
2022/09/08 04:29:18;;;;;;;6.67;4.27;;;17.10;99.90;;;;;;4993787;28;20469;-75
2022/09/08 04:31:44;;;;;;;3.97;3.40;;;17.00;99.90;;;;;;4992446;28;20220;-74
2022/09/08 04:34:10;;;;;;;4.10;3.70;;;16.90;99.90;;;;;;4992898;28;20563;-74
2022/09/08 04:36:36;;;;;;;6.30;4.03;;;16.90;99.90;;;;;;4992794;28;20188;-74
2022/09/08 04:39:02;;;;;;;5.90;3.37;;;16.90;99.90;;;;;;4992536;28;20431;-75
2022/09/08 04:41:30;;;;;;;7.33;3.77;;;16.90;99.90;;;;;;4993330;28;20200;-74
2022/09/08 04:44:00;;;;;;;5.70;3.73;;;16.90;99.90;;;;;;4992698;28;20402;-74
2022/09/08 04:46:26;;;;;;;4.30;3.47;;;16.90;99.90;;;;;;4993752;28;20415;-74
2022/09/08 04:48:52;;;;;;;4.90;3.70;;;16.90;99.90;;;;;;4993733;28;20839;-74
2022/09/08 04:51:19;;;;;;;8.60;4.13;;;16.80;99.90;;;;;;4993089;28;20885;-75
2022/09/08 04:53:45;;;;;;;7.60;4.47;;;16.80;99.90;;;;;;4993587;28;20482;-75
2022/09/08 04:56:11;;;;;;;8.40;5.07;;;16.90;99.90;;;;;;4993558;28;20447;-75
2022/09/08 04:58:39;;;;;;;4.97;4.47;;;16.90;99.90;;;;;;4993673;28;20469;-75
2022/09/08 05:01:07;;;;;;;5.30;4.80;;;16.80;99.90;;;;;;4991360;28;20488;-74
2022/09/08 05:03:33;;;;;;;6.30;4.43;;;16.80;99.90;;;;;;4993083;28;20773;-74
2022/09/08 05:06:06;;;;;;;6.73;4.73;;;16.70;99.90;;;;;;4991912;28;20439;-74
2022/09/08 05:08:32;;;;;;;5.70;4.67;;;16.60;99.90;;;;;;4993609;28;20401;-75
2022/09/08 05:10:58;;;;;;;7.37;5.20;;;16.60;99.90;;;;;;4993143;28;20457;-75
2022/09/08 05:13:24;;;;;;;5.00;4.50;;;16.60;99.90;;;;;;4993424;28;20187;-74
2022/09/08 05:15:50;;;;;;;8.43;4.73;;;16.70;99.90;;;;;;4992064;28;20922;-75
2022/09/08 05:18:15;;;;;;;6.23;4.23;;;16.70;99.90;;;;;;4993732;28;20592;-75
2022/09/08 05:20:41;;;;;;;6.73;4.40;;;16.70;99.90;;;;;;4991872;28;20286;-75
2022/09/08 05:23:07;;;;;;;4.67;4.27;;;16.60;99.90;;;;;;4976017;28;20238;-75
2022/09/08 05:25:32;;;;;;;5.80;4.97;;;16.60;99.90;;;;;;4993586;28;20192;-75
2022/09/08 05:27:58;;;;;;;7.70;5.03;;;16.70;99.90;;;;;;4993440;28;20203;-75
2022/09/08 05:30:23;;;;;;;6.23;5.20;;;16.70;99.90;;;;;;4993026;28;20184;-74
2022/09/08 05:32:49;;;;;;;7.43;5.23;;;16.60;99.90;;;;;;4993514;28;20190;-74
2022/09/08 05:35:15;;;;;;;6.43;5.10;;;16.50;99.90;;;;;;4993382;28;20184;-75
2022/09/08 05:37:41;;;;;;;6.77;6.17;;;16.50;99.90;;;;;;4993295;28;20188;-74
2022/09/08 05:40:07;;;;;;;11.00;5.67;;;16.50;99.90;;;;;;4991506;28;20605;-75
2022/09/08 05:42:32;;;;;;;7.87;5.53;;;16.40;99.90;;;;;;4996029;28;20522;-75
2022/09/08 05:44:58;;;;;;;9.47;5.00;;;16.50;99.90;;;;;;4996759;28;20848;-75
2022/09/08 05:47:24;;;;;;;11.57;4.97;;;16.40;99.90;;;;;;4996700;28;20192;-75
2022/09/08 05:49:50;;;;;;;8.23;4.57;;;16.40;99.90;;;;;;4996195;28;20419;-75
2022/09/08 05:52:15;;;;;;;10.63;4.83;;;16.40;99.90;;;;;;4996340;28;20251;-75
2022/09/08 05:54:41;;;;;;;9.07;4.07;;;16.40;99.90;;;;;;4995366;28;20631;-76
2022/09/08 05:57:06;;;;;;;7.07;3.93;;;16.30;99.90;;;;;;4996479;28;20183;-75
2022/09/08 05:59:32;;;;;;;7.73;3.87;;;16.30;99.90;;;;;;4978977;28;20684;-76
2022/09/08 06:01:58;;;;;;;5.87;3.63;;;16.30;99.90;;;;;;4995845;28;20287;-76
2022/09/08 06:04:23;;;;;;;7.13;3.20;;;16.20;99.90;;;;;;4996281;28;20184;-75
2022/09/08 06:06:49;;;;;;;5.30;2.93;;;16.30;99.90;;;;;;4995400;28;20195;-75
2022/09/08 06:09:15;;;;;;;8.00;3.00;;;16.30;99.90;;;;;;4996548;28;20216;-75
2022/09/08 06:11:41;;;;;;;7.63;3.80;;;16.30;99.90;;;;;;4996076;28;20740;-75
2022/09/08 06:14:07;;;;;;;9.10;2.80;;;16.10;99.90;;;;;;4996249;28;20172;-75
2022/09/08 06:16:34;;;;;;;3.63;3.20;;;16.20;99.90;;;;;;4996334;28;20430;-75
2022/09/08 06:19:00;;;;;;;7.73;3.30;;;16.10;99.90;;;;;;4996226;28;20879;-75
2022/09/08 06:21:28;;;;;;;11.23;3.43;;;16.10;99.90;;;;;;4995794;28;20509;-75
2022/09/08 06:23:56;;;;;;;7.40;3.20;;;16.20;99.90;;;;;;4994935;28;20401;-75
2022/09/08 06:26:52;;;;;;;5.53;3.13;;;16.20;99.90;;;;;;4995864;28;20393;-75
2022/09/08 06:29:23;;;;;;;5.70;3.23;;;16.10;99.90;;;;;;4996053;28;20491;-75
2022/09/08 06:32:04;;;;;;;7.60;3.00;;;16.10;99.90;;;;;;4995691;28;20437;-75
2022/09/08 06:34:39;;;;;;;5.97;2.80;;;16.20;99.90;;;;;;4996021;28;20497;-75
2022/09/08 06:37:10;;;;;;;8.57;3.40;;;16.10;99.90;;;;;;4996106;28;20485;-76
2022/09/08 06:39:50;;;;;;;7.10;3.13;;;16.20;99.90;;;;;;4994868;28;20403;-76
2022/09/08 06:42:24;;;;;;;7.60;3.80;;;16.20;99.90;;;;;;4976146;28;20413;-75
2022/09/08 06:44:53;;;;;;;4.23;3.70;;;16.30;99.90;;;;;;4976401;28;20412;-76
2022/09/08 06:47:24;;;;;;;7.30;4.00;;;16.40;99.90;;;;;;4976266;28;20827;-75
2022/09/08 06:49:51;;;;;;;5.60;4.00;;;16.40;99.90;;;;;;4975781;28;20394;-75
2022/09/08 06:52:46;;;;;;;4.47;3.67;;;16.50;99.90;;;;;;4975121;28;20483;-75
2022/09/08 06:55:18;;;;;;;7.77;4.70;;;16.50;99.90;;;;;;4975883;28;20411;-75
2022/09/08 06:58:14;;;;;;;8.80;5.37;;;16.50;99.90;;;;;;4975992;28;20886;-75
2022/09/08 07:00:51;;;;;;;11.87;5.10;;;16.40;99.90;;;;;;4974223;28;20415;-75
2022/09/08 07:03:46;;;;;;;7.37;5.07;;;16.40;99.90;;;;;;4974582;28;20759;-75
2022/09/08 07:06:16;;;;;;;7.17;4.40;;;16.30;99.90;;;;;;4975773;28;20820;-75
2022/09/08 07:08:53;;;;;;;8.00;4.73;;;16.30;99.90;;;;;;4975753;28;20391;-74
2022/09/08 07:11:24;;;;;;;6.47;4.10;;;16.20;99.90;;;;;;4975383;28;20442;-75
2022/09/08 07:14:08;;;;;;;11.57;5.17;;;16.10;99.90;;;;;;4975686;28;20412;-74
2022/09/08 07:16:43;;;;;;;5.60;3.03;;;15.90;99.90;;;;;;4975546;28;20391;-74
2022/09/08 07:19:19;;;;;;;3.73;2.87;;;15.80;99.90;;;;;;4974504;28;20420;-75
2022/09/08 07:22:02;;;;;;;4.53;2.40;;;15.80;99.90;;;;;;4975387;28;20411;-75
2022/09/08 07:24:35;;;;;;;5.03;3.00;;;15.80;99.90;;;;;;4975692;28;20395;-75
2022/09/08 07:27:05;;;;;;;4.93;2.50;;;15.90;99.90;;;;;;4975374;28;20403;-76
2022/09/08 07:29:42;;;;;;;3.43;2.03;;;15.90;99.90;;;;;;4975311;28;20420;-76
2022/09/08 07:32:16;;;;;;;2.90;2.47;;;16.00;99.90;;;;;;4975123;28;20438;-76
2022/09/08 07:34:52;;;;;;;5.13;2.23;;;16.10;99.90;;;;;;4984091;28;20755;-75
2022/09/08 07:37:54;;;;;;;2.07;1.87;;;16.30;99.90;;;;;;4992641;28;20407;-76
2022/09/08 07:40:34;;;;;;;4.20;1.97;;;16.30;99.90;;;;;;4968911;28;20428;-76
2022/09/08 07:43:00;;;;;;;1.40;1.27;;;16.30;99.90;;;;;;4988359;28;20522;-76
2022/09/08 07:45:54;;;;;;;3.00;1.70;;;16.30;99.90;;;;;;4994529;28;20397;-76
2022/09/08 07:48:37;;;;;;;2.50;1.33;;;16.20;99.90;;;;;;4994066;28;20940;-76
2022/09/08 07:51:27;;;;;;;2.23;1.50;;;16.30;99.90;;;;;;4993882;28;20471;-76
2022/09/08 07:54:01;;;;;;;2.57;1.40;;;16.30;99.90;;;;;;4993626;28;20899;-76
2022/09/08 07:56:40;;;;;;;3.00;1.80;;;16.30;99.90;;;;;;4992691;28;20501;-76
2022/09/08 07:59:43;;;;;;;2.80;1.80;;;16.30;99.90;;;;;;4993599;28;20470;-76
2022/09/08 08:02:47;;;;;;;2.07;1.97;;;16.30;99.90;;;;;;4969591;28;20504;-75
2022/09/08 08:05:19;;;;;;;3.93;1.80;;;16.30;99.90;;;;;;4990980;28;20435;-76
2022/09/08 08:08:07;;;;;;;2.30;1.70;;;16.40;99.90;;;;;;4992381;28;20390;-76
2022/09/08 08:10:43;;;;;;;7.07;2.70;;;16.50;99.90;;;;;;4993759;28;20426;-77
2022/09/08 08:13:26;;;;;;;3.30;2.50;;;16.30;99.90;;;;;;4993523;28;20428;-76
2022/09/08 08:16:20;;;;;;;4.30;2.90;;;16.20;99.90;;;;;;4994106;28;20502;-76
2022/09/08 08:19:12;;;;;;;3.70;2.90;;;16.20;99.90;;;;;;4994311;28;20450;-76
2022/09/08 08:21:48;;;;;;;4.47;3.17;;;16.20;99.90;;;;;;4992377;28;20443;-75
2022/09/08 08:24:44;;;;;;;3.47;3.17;;;16.30;99.90;;;;;;4994092;28;20403;-75
2022/09/08 08:27:33;;;;;;;6.60;3.33;;;16.50;99.90;;;;;;4993826;28;20514;-75
2022/09/08 08:30:21;;;;;;;5.00;2.70;;;16.70;99.90;;;;;;4993698;28;20407;-75
2022/09/08 08:32:48;;;;;;;4.93;3.40;;;16.70;99.90;;;;;;4992272;28;20536;-75
2022/09/08 08:35:31;;;;;;;8.50;3.47;;;16.90;99.90;;;;;;4991178;28;20515;-74
2022/09/08 08:37:59;;;;;;;3.27;2.50;;;17.10;99.90;;;;;;4992883;28;20476;-74
2022/09/08 08:40:57;;;;;;;6.77;2.30;;;17.40;99.90;;;;;;4993657;28;20756;-73
2022/09/08 08:43:33;;;;;;;3.03;2.10;;;17.40;99.90;;;;;;4993903;28;20473;-75
2022/09/08 08:46:27;;;;;;;6.10;1.90;;;17.30;99.90;;;;;;4993942;28;20438;-75
2022/09/08 08:49:11;;;;;;;2.73;1.90;;;17.30;99.90;;;;;;4993388;28;20901;-75
2022/09/08 08:52:16;;;;;;;3.40;1.37;;;17.60;99.90;;;;;;4992214;28;20474;-74
2022/09/08 08:54:46;;;;;;;1.70;1.30;;;18.10;99.90;;;;;;4992274;28;20442;-74
2022/09/08 08:58:02;;;;;;;1.70;1.30;;;17.90;99.90;;;;;;4993656;28;20415;-75
2022/09/08 09:00:59;;;;;;;5.43;1.40;;;17.80;99.90;;;;;;4984552;28;20534;-75
2022/09/08 09:03:28;;;;;;;3.50;1.13;;;17.80;99.90;;;;;;4973956;28;20507;-74
2022/09/08 09:06:13;;;;;;;2.70;1.43;;;17.70;99.90;;;;;;4974152;28;20413;-74
2022/09/08 09:08:56;;;;;;;2.80;1.20;;;17.70;99.90;;;;;;4973840;28;20527;-75
2022/09/08 09:11:49;;;;;;;3.13;1.23;;;17.90;99.90;;;;;;4973650;28;20459;-75
2022/09/08 09:14:36;;;;;;;3.87;1.53;;;17.90;99.90;;;;;;4974113;28;20699;-75
2022/09/08 09:17:11;;;;;;;2.30;1.43;;;17.90;99.90;;;;;;4974799;28;20430;-74
2022/09/08 09:19:47;;;;;;;1.63;1.33;;;17.60;99.90;;;;;;4977696;28;20423;-74
2022/09/08 09:22:34;;;;;;;4.33;2.00;;;17.60;99.90;;;;;;4976409;28;20447;-75
2022/09/08 09:25:38;;;;;;;2.80;1.43;;;17.60;99.90;;;;;;4977914;28;20770;-73
2022/09/08 09:28:26;;;;;;;1.63;1.43;;;17.70;99.90;;;;;;4957333;28;20415;-74
2022/09/08 09:31:02;;;;;;;4.17;1.43;;;17.70;99.90;;;;;;4977317;28;20456;-74
2022/09/08 09:33:40;;;;;;;2.30;1.20;;;17.90;99.90;;;;;;4977678;28;20491;-73
2022/09/08 09:36:28;;;;;;;3.37;1.20;;;18.10;99.90;;;;;;4977632;28;20498;-74
2022/09/08 09:38:57;;;;;;;2.17;1.40;;;18.30;99.90;;;;;;4977656;28;20436;-74
2022/09/08 09:41:41;;;;;;;1.77;1.30;;;18.50;99.90;;;;;;4975860;28;20518;-73
2022/09/08 09:44:48;;;;;;;3.70;1.70;;;18.70;99.90;;;;;;4977460;28;20481;-74
2022/09/08 09:47:14;;;;;;;2.23;1.23;;;18.70;99.90;;;;;;4971654;28;20968;-74
2022/09/08 09:49:57;;;;;;;3.27;1.03;;;18.70;99.90;;;;;;4976866;28;20451;-76
2022/09/08 09:52:49;;;;;;;1.73;1.10;;;18.60;99.90;;;;;;4977209;28;20291;-77
2022/09/08 09:55:23;;;;;;;2.30;1.00;;;18.70;99.90;;;;;;4974285;28;20452;-77
2022/09/08 09:57:54;;;;;;;1.20;1.10;;;18.80;99.90;;;;;;4977224;28;20928;-77
2022/09/08 10:00:24;;;;;;;3.70;1.17;;;19.20;99.90;;;;;;4976795;28;20452;-75
2022/09/08 10:03:30;;;;;;;2.67;1.10;;;19.80;99.90;;;;;;4976985;28;20449;-76
2022/09/08 10:06:24;;;;;;;3.37;1.70;;;20.20;99.90;;;;;;4960973;28;20424;-77
2022/09/08 10:08:54;;;;;;;2.40;1.13;;;20.50;99.90;;;;;;4977025;28;20412;-76
2022/09/08 10:11:43;;;;;;;3.67;1.20;;;20.60;99.90;;;;;;4976380;28;20460;-76
2022/09/08 10:14:32;;;;;;;1.20;0.90;;;20.40;99.90;;;;;;4976785;28;20984;-75
2022/09/08 10:17:45;;;;;;;3.47;1.23;;;20.20;99.90;;;;;;4976881;28;20452;-76
2022/09/08 10:20:14;;;;;;;2.23;1.10;;;20.10;99.90;;;;;;4976349;28;20399;-77
2022/09/08 10:23:16;;;;;;;2.80;1.30;;;20.60;99.90;;;;;;4975736;28;20527;-76
2022/09/08 10:26:13;;;;;;;2.37;1.10;;;20.70;99.90;;;;;;4976780;28;20491;-77
2022/09/08 10:28:48;;;;;;;4.30;0.90;;;20.90;99.90;;;;;;4976521;28;20753;-77
2022/09/08 10:31:50;;;;;;;1.10;0.80;;;21.70;99.90;;;;;;4976190;28;20482;-78
2022/09/08 10:34:19;;;;;;;3.43;1.10;;;22.70;99.90;;;;;;4976376;28;20419;-75
2022/09/08 10:37:03;;;;;;;1.30;0.70;;;23.00;99.90;;;;;;4976421;28;20409;-75
2022/09/08 10:39:39;;;;;;;3.87;0.97;;;22.00;99.90;;;;;;4976473;28;20404;-76
2022/09/08 10:42:23;;;;;;;4.20;1.20;;;21.50;99.90;;;;;;4976018;28;20954;-77
2022/09/08 10:45:13;;;;;;;2.77;1.10;;;21.20;99.90;;;;;;4976501;28;20450;-75
2022/09/08 10:48:00;;;;;;;3.20;1.00;;;21.00;99.90;;;;;;4976484;28;20474;-77
2022/09/08 10:50:28;;;;;;;1.80;0.87;;;21.30;99.90;;;;;;4974404;28;20451;-77
2022/09/08 10:53:33;;;;;;;3.43;1.27;;;21.40;99.90;;;;;;4976288;28;20416;-75
2022/09/08 10:56:07;;;;;;;2.37;1.10;;;21.40;99.90;;;;;;4976013;28;20438;-74
2022/09/08 10:58:52;;;;;;;2.30;1.20;;;21.50;99.90;;;;;;4975998;28;20412;-74
2022/09/08 11:02:00;;;;;;;2.63;1.17;;;21.50;99.90;;;;;;4974402;28;20998;-73
2022/09/08 11:05:07;;;;;;;3.00;0.90;;;21.80;99.90;;;;;;4974405;28;20486;-74
2022/09/08 11:07:41;;;;;;;2.10;0.87;;;21.50;99.90;;;;;;4975811;28;20407;-74
2022/09/08 11:10:39;;;;;;;1.80;0.87;;;21.10;99.90;;;;;;4975419;28;20421;-73
2022/09/08 11:13:50;;;;;;;2.87;1.10;;;20.70;99.90;;;;;;4974441;28;20482;-74
2022/09/08 11:16:44;;;;;;;3.17;1.20;;;20.40;99.90;;;;;;4935326;29;20528;-74
2022/09/08 11:19:28;;;;;;;3.30;0.70;;;20.30;99.90;;;;;;4975685;28;20965;-73
2022/09/08 11:22:13;;;;;;;3.10;0.90;;;20.20;99.90;;;;;;4975369;28;20432;-73
2022/09/08 11:25:13;;;;;;;1.83;0.70;;;20.00;99.90;;;;;;4975468;28;20411;-74
2022/09/08 11:28:19;;;;;;;1.70;0.83;;;20.10;99.90;;;;;;4974279;28;20947;-73
2022/09/08 11:31:07;;;;;;;1.97;1.10;;;20.00;99.90;;;;;;4974951;28;20787;-74
2022/09/08 11:34:09;;;;;;;4.60;1.60;;;20.20;99.90;;;;;;4974458;28;20544;-73
2022/09/08 11:37:05;;;;;;;1.40;0.77;;;20.30;99.90;;;;;;4954315;28;20776;-72
2022/09/08 11:39:43;;;;;;;1.37;0.60;;;20.50;99.90;;;;;;4973616;28;20427;-74
2022/09/08 11:42:36;;;;;;;1.77;1.00;;;20.90;99.90;;;;;;4975382;28;20456;-75
2022/09/08 11:45:43;;;;;;;1.07;0.70;;;21.50;99.90;;;;;;4975324;28;20423;-74
2022/09/08 11:48:47;;;;;;;1.40;0.70;;;22.10;99.90;;;;;;4975108;28;20407;-75
2022/09/08 11:51:23;;;;;;;0.70;0.60;;;21.90;99.90;;;;;;4974574;28;20986;-75
2022/09/08 11:54:19;;;;;;;1.27;0.70;;;21.80;99.90;;;;;;4975005;28;20762;-74
2022/09/08 11:57:18;;;;;;;3.50;1.17;;;22.10;99.90;;;;;;4974851;28;20430;-75
2022/09/08 11:59:52;;;;;;;1.60;0.70;;;22.00;99.90;;;;;;4955887;28;20751;-74
2022/09/08 12:02:38;;;;;;;2.00;0.80;;;22.30;99.90;;;;;;4974823;28;20443;-75
2022/09/08 12:05:41;;;;;;;3.20;0.80;;;22.40;99.90;;;;;;4967687;28;20845;-75
2022/09/08 12:08:22;;;;;;;1.47;0.63;;;22.30;99.90;;;;;;4974805;28;20411;-75
2022/09/08 12:11:20;;;;;;;4.73;0.70;;;22.60;99.90;;;;;;4974154;28;20478;-75
2022/09/08 12:14:09;;;;;;;1.80;0.73;;;22.80;99.90;;;;;;4989256;28;20924;-74
2022/09/08 12:16:49;;;;;;;2.47;0.90;;;23.00;99.90;;;;;;4974598;28;20408;-74
2022/09/08 12:19:35;;;;;;;1.77;0.67;;;23.50;99.90;;;;;;4974687;28;20415;-74
2022/09/08 12:22:11;;;;;;;1.47;1.00;;;23.60;99.90;;;;;;4974397;28;20432;-74
2022/09/08 12:24:50;;;;;;;3.50;0.60;;;23.50;99.90;;;;;;4974525;28;20407;-75
2022/09/08 12:27:27;;;;;;;2.30;0.80;;;23.50;99.90;;;;;;4974511;28;20426;-74
2022/09/08 12:30:02;;;;;;;1.70;0.70;;;23.40;99.90;;;;;;4974286;28;20412;-75
2022/09/08 12:32:47;;;;;;;2.33;1.00;;;23.70;99.90;;;;;;4974409;28;20590;-74
2022/09/08 12:35:34;;;;;;;3.67;0.97;;;23.80;99.90;;;;;;4974516;28;20419;-75
2022/09/08 12:38:19;;;;;;;2.80;0.70;;;23.60;99.90;;;;;;4974264;28;20412;-74
2022/09/08 12:41:22;;;;;;;1.87;0.90;;;23.80;99.90;;;;;;4972851;28;20439;-74
2022/09/08 12:43:48;;;;;;;2.20;0.87;;;24.20;99.90;;;;;;4974361;28;20892;-75
2022/09/08 12:46:34;;;;;;;3.60;0.80;;;24.50;99.90;;;;;;4973122;28;20423;-75
2022/09/08 12:49:31;;;;;;;1.57;0.63;;;24.20;99.90;;;;;;4974498;28;20173;-75
2022/09/08 12:52:02;;;;;;;1.80;0.80;;;24.20;99.90;;;;;;4977733;28;20555;-75
2022/09/08 12:54:34;;;;;;;1.83;0.70;;;24.30;99.90;;;;;;4978063;28;20423;-74
2022/09/08 12:57:00;;;;;;;1.33;0.70;;;24.40;99.90;;;;;;4978088;28;20406;-74
2022/09/08 12:59:36;;;;;;;2.23;0.90;;;24.50;99.90;;;;;;4978020;28;20506;-75
2022/09/08 13:02:15;;;;;;;2.07;0.90;;;24.70;99.90;;;;;;4977805;28;20599;-74
2022/09/08 13:04:51;;;;;;;5.10;0.90;;;24.50;99.90;;;;;;4978147;28;20415;-74
2022/09/08 13:07:54;;;;;;;1.60;0.93;;;24.50;99.90;;;;;;4976579;28;20420;-74
2022/09/08 13:10:32;;;;;;;1.10;0.80;;;24.80;99.90;;;;;;4977571;28;20403;-74
2022/09/08 13:13:19;;;;;;;1.57;0.93;;;25.00;99.90;;;;;;4977934;28;20459;-75
2022/09/08 13:15:53;;;;;;;2.87;0.80;;;24.50;99.90;;;;;;4977671;28;20407;-75
2022/09/08 13:18:47;;;;;;;2.27;1.13;;;24.30;99.90;;;;;;4977805;28;20531;-76
2022/09/08 13:21:44;;;;;;;2.50;0.70;;;24.10;99.90;;;;;;4977319;28;20481;-75
2022/09/08 13:24:25;;;;;;;2.87;0.90;;;24.00;99.90;;;;;;4950789;28;20505;-75
2022/09/08 13:26:53;;;;;;;2.50;0.87;;;24.50;99.90;;;;;;4992911;28;20427;-74
2022/09/08 13:29:52;;;;;;;2.00;0.83;;;24.80;99.90;;;;;;4995659;28;20424;-75
2022/09/08 13:32:46;;;;;;;1.97;0.80;;;24.60;99.90;;;;;;4996931;28;20462;-74
2022/09/08 13:36:00;;;;;;;1.93;1.03;;;24.30;99.90;;;;;;4996697;28;20962;-75